• Join FlightAware (Why Join?)
  • Login
  • US Flag 
10:14PM EDT


 

Airport Tracker/Info


-or-


 

Live Flight TrackerFlight Track Log ✈ SKQ45 ✈ 29-Apr-2013 ✈ KBUY - KPAH

Flight Track Log - Related Links

Times and Time Zones

All times are in EDT time to prevent confusion due to time zone crossing. See the SKQ45 flight status page for this flight to view local times or setup timezone preferences in your user account.

Time Position Orientation Groundspeed Altitude Reporting Facility
EDT Latitude Longitude Course Direction KTS MPH feet Rate Location/Type
08:00PM 36.0847 -79.7892 302° West 167 192 8,900  Level Atlanta Center
08:01PM 36.0928 -79.8375 282° West 167 192 10,300 1,260 Climbing Atlanta Center
08:02PM 36.1121 -79.9228 282° West  Level FlightAware Approximate
08:02PM 36.0986 -79.8911 278° West 162 186 11,500  Level Atlanta Center
08:03PM 36.1208 -79.9998 276° West  Level FlightAware Approximate
08:03PM 36.1092 -79.9497 283° West 167 192 12,700  Level Atlanta Center
08:04PM 36.1273 -80.0772 276° West  Level FlightAware Approximate
08:04PM 36.1153 -80.0086 277° West 167 192 13,800  Level Atlanta Center
08:05PM 36.1353 -80.1540 302° West  Level FlightAware Approximate
08:05PM 36.1256 -80.0747 281° West 167 192 15,000  Level Atlanta Center
08:06PM 36.1339 -80.1386 279° West 178 205 16,000 480 Climbing Atlanta Center
08:07PM 36.1444 -80.2103 280° West 196 226 16,000  Level Atlanta Center
08:08PM 36.1575 -80.2919 281° West 223 257 16,000 120 Level Atlanta Center
08:09PM 36.1661 -80.3661 278° West 243 280 16,300 600 Climbing Atlanta Center
08:10PM 36.1786 -80.4400 282° West 238 274 17,200 780 Climbing Atlanta Center
08:11PM 36.1892 -80.5142 280° West 227 261 17,900 720 Climbing Atlanta Center
08:12PM 36.1953 -80.5833 276° West 216 249 18,700 840 Climbing Atlanta Center
08:13PM 36.2078 -80.6550 282° West 216 249 19,600 600 Climbing Atlanta Center
08:14PM 36.2200 -80.7239 282° West 216 249 20,000 180 Climbing Atlanta Center
08:15PM 36.2306 -80.8033 279° West 226 260 20,000  Level Atlanta Center
08:16PM 36.2431 -80.8825 281° West 240 276 20,000  Level Atlanta Center
08:17PM 36.2533 -80.9672 279° West 245 282 20,000  Level Atlanta Center
08:18PM 36.2639 -81.0542 279° West 245 282 20,000  Level Atlanta Center
08:19PM 36.2764 -81.1389 280° West 256 295 20,000  Level Atlanta Center
08:20PM 36.2889 -81.2311 280° West 256 295 20,000  Level Atlanta Center
08:21PM 36.3011 -81.3131 281° West 256 295 20,000  Level Atlanta Center
08:22PM 36.3114 -81.3978 279° West 256 295 20,000  Level Atlanta Center
08:23PM 36.3236 -81.4797 281° West 256 295 20,000  Level Atlanta Center
08:24PM 36.3336 -81.5672 278° West 256 295 20,000  Level Atlanta Center
08:25PM 36.3436 -81.6492 279° West 256 295 20,000  Level Atlanta Center
08:26PM 36.3558 -81.7342 280° West 256 295 20,000  Level Atlanta Center
08:27PM 36.3678 -81.8214 280° West 256 295 20,000  Level Atlanta Center
08:28PM 36.3775 -81.8983 279° West 256 295 20,000  Level Atlanta Center
08:29PM 36.3872 -81.9806 278° West 256 295 20,000  Level Atlanta Center
08:30PM 36.3992 -82.0681 280° West 256 295 20,000  Level Atlanta Center
08:31PM 36.4089 -82.1531 278° West 251 289 20,000  Level Atlanta Center
08:32PM 36.4206 -82.2378 280° West 257 296 20,000  Level Atlanta Center
08:33PM 36.4300 -82.3228 278° West 257 296 20,000  Level Atlanta Center
08:34PM 36.4417 -82.4103 279° West 257 296 20,000  Level Atlanta Center
08:35PM 36.4531 -82.4925 280° West 257 296 20,000  Level Atlanta Center
08:36PM 36.4606 -82.5778 276° West 257 296 20,000  Level Atlanta Center
08:37PM 36.4719 -82.6628 279° West 257 296 20,000  Level Atlanta Center
08:38PM 36.4833 -82.7478 279° West 257 296 20,000  Level Atlanta Center
08:39PM 36.4903 -82.8328 276° West 257 296 20,000  Level Atlanta Center
08:40PM 36.5036 -82.9281 280° West 257 296 20,000  Level Atlanta Center
08:41PM 36.5128 -83.0133 278° West 257 296 20,000  Level Atlanta Center
08:42PM 36.5239 -83.0983 279° West 257 296 20,000  Level Atlanta Center
08:45PM 36.5489 -83.2900 279° West 247 284 20,000  Level Indianapolis Center
08:46PM 36.5589 -83.3750 278° West 246 283 20,000  Level Indianapolis Center
08:47PM 36.5683 -83.4597 278° West 247 284 20,000  Level Indianapolis Center
08:48PM 36.5786 -83.5428 279° West 244 281 20,000  Level Indianapolis Center
08:49PM 36.5900 -83.6422 278° West 248 285 20,000  Level Indianapolis Center
08:50PM 36.5992 -83.7264 278° West 246 283 20,000  Level Indianapolis Center
08:51PM 36.6092 -83.8114 278° West 248 285 20,000  Level Indianapolis Center
08:53PM 36.6278 -83.9831 278° West 249 287 20,000  Level Indianapolis Center
08:54PM 36.6372 -84.0681 278° West 248 285 20,000  Level Indianapolis Center
08:55PM 36.6464 -84.1519 278° West 245 282 20,000  Level Indianapolis Center
08:56PM 36.6564 -84.2356 279° West 244 281 20,000  Level Indianapolis Center
08:57PM 36.6647 -84.3206 277° West 247 284 20,000  Level Indianapolis Center
08:58PM 36.6758 -84.4186 278° West 246 283 20,000  Level Indianapolis Center
08:59PM 36.6847 -84.5028 278° West 245 282 20,000  Level Indianapolis Center
09:00PM 36.6928 -84.5783 278° West 246 283 20,000  Level Indianapolis Center
09:01PM 36.7006 -84.6619 277° West 244 281 20,000  Level Indianapolis Center
09:02PM 36.7125 -84.7642 278° West 247 284 20,000  Level Indianapolis Center
09:03PM 36.7200 -84.8483 276° West 245 282 20,000  Level Indianapolis Center
09:04PM 36.7292 -84.9331 278° West 246 283 20,000  Level Indianapolis Center
09:05PM 36.7383 -85.0175 278° West 246 283 20,000  Level Indianapolis Center
09:06PM 36.7469 -85.1022 277° West 247 284 20,000  Level Indianapolis Center
09:07PM 36.7547 -85.1856 277° West 243 280 20,000  Level Indianapolis Center
09:08PM 36.7628 -85.2694 277° West 244 281 20,000  Level Indianapolis Center
09:09PM 36.7711 -85.3536 277° West 245 282 20,000  Level Indianapolis Center
09:10PM 36.7747 -85.4094 275° West 255 293 20,000  Level Memphis Center
09:11PM 36.7842 -85.4867 279° West 255 293 20,000  Level Memphis Center
09:12PM 36.7936 -85.5717 278° West 255 293 20,000  Level Memphis Center
09:13PM 36.8031 -85.6567 278° West 255 293 20,000  Level Memphis Center
09:14PM 36.8108 -85.7494 276° West 255 293 20,000  Level Memphis Center
09:15PM 36.8181 -85.8344 276° West 255 293 20,000  Level Memphis Center
09:16PM 36.8253 -85.9169 276° West 250 288 20,000  Level Memphis Center
09:17PM 36.8344 -86.0022 278° West 250 288 20,000  Level Memphis Center
09:18PM 36.8417 -86.0847 276° West 250 288 20,000  Level Memphis Center
09:19PM 36.8508 -86.1697 278° West 250 288 20,000  Level Memphis Center
09:20PM 36.8578 -86.2522 276° West 250 288 20,000  Level Memphis Center
09:21PM 36.8667 -86.3400 277° West 250 288 20,000  Level Memphis Center
09:22PM 36.8736 -86.4228 276° West 250 288 20,000  Level Memphis Center
09:23PM 36.8825 -86.5103 277° West 250 288 20,000  Level Memphis Center
09:24PM 36.8872 -86.5958 274° West 250 288 20,000  Level Memphis Center
09:25PM 36.8961 -86.6808 277° West 250 288 20,000  Level Memphis Center
09:26PM 36.9025 -86.7558 276° West 250 288 20,000  Level Memphis Center
09:27PM 36.9111 -86.8436 277° West 250 288 20,000  Level Memphis Center
09:28PM 36.9178 -86.9264 276° West 250 288 20,000  Level Memphis Center
09:29PM 36.9242 -87.0144 275° West 250 288 20,000 -300 Level Memphis Center
09:30PM 36.9328 -87.0997 277° West 250 288 19,500 -960 Descending Memphis Center
09:31PM 36.9414 -87.1928 277° West 262 302 18,100 -1,500 Descending Memphis Center
09:32PM 36.9481 -87.2886 275° West 273 314 16,500 -1,680 Descending Memphis Center
09:33PM 36.9544 -87.3844 275° West 273 314 14,800 -1,620 Descending Memphis Center
09:34PM 36.9633 -87.4881 276° West 273 314 13,300 -1,500 Descending Memphis Center
09:35PM 36.9717 -87.5836 276° West 273 314 11,800 -1,560 Descending Memphis Center
09:36PM 36.9781 -87.6794 275° West 281 323 10,200 -1,680 Descending Memphis Center
09:37PM 36.9861 -87.7728 276° West 276 318 8,500 -1,620 Descending Memphis Center
09:38PM 36.9942 -87.8608 277° West 268 308 7,000 -1,200 Descending Memphis Center
09:39PM 36.9981 -87.9489 273° West 263 303 6,100 -480 Descending Memphis Center
09:40PM 37.0058 -88.0267 277° West 240 276 6,100  Level Memphis Center
09:41PM 37.0094 -88.1097 273° West 235 270 6,100 -300 Level Memphis Center
09:42PM 37.0211 -88.1847 281° West 235 270 5,600 -900 Descending Memphis Center
09:43PM 37.0392 -88.2675 285° West 240 276 4,400 -840 Descending Memphis Center
09:44PM 37.0303 -88.3508 262° West 240 276 4,000 -420 Descending Memphis Center
09:45PM 37.0253 -88.4314 266° West 240 276 3,600 -420 Descending Memphis Center
09:46PM 37.0181 -88.5097 263° West 235 270 3,200 -420 Descending Memphis Center
09:47PM 37.0169 -88.5797 269° West 225 259 2,800 -420 Descending Memphis Center
09:48PM 37.0075 -88.6425 259° West 202 232 2,400 -420 Descending Memphis Center
09:49PM 37.0083 -88.6994 271° West 188 216 2,000 -600 Descending Memphis Center
09:50PM 37.0275 -88.7433 299° West 161 185 1,300 -720 Descending Memphis Center
09:51PM 37.0508 -88.7636 325° Northwest 122 140 600 -720 Descending Memphis Center